createdAt,value
2023-01-02T00:00:46.544Z,16.48
2023-01-02T00:02:52.015Z,18.38
2023-01-02T00:04:55.738Z,20.77
2023-01-02T00:07:01.067Z,22.70
2023-01-02T00:09:05.226Z,21.50
2023-01-02T00:11:09.647Z,24.08
2023-01-02T00:13:13.379Z,18.33
2023-01-02T00:15:17.013Z,21.88
2023-01-02T00:17:20.845Z,19.38
2023-01-02T00:19:25.981Z,17.88
2023-01-02T00:21:30.363Z,20.02
2023-01-02T00:23:34.545Z,16.75
2023-01-02T00:25:38.663Z,17.08
2023-01-02T00:27:42.252Z,18.88
2023-01-02T00:29:45.887Z,16.45
2023-01-02T00:31:49.554Z,15.45
2023-01-02T00:33:53.356Z,17.60
2023-01-02T00:35:58.810Z,16.55
2023-01-02T00:38:02.930Z,18.08
2023-01-02T00:40:14.002Z,15.43
2023-01-02T00:42:18.162Z,16.65
2023-01-02T00:44:22.465Z,16.30
2023-01-02T00:46:26.267Z,16.45
2023-01-02T00:48:30.270Z,12.95
2023-01-02T00:50:34.090Z,14.55
2023-01-02T00:52:39.581Z,15.63
2023-01-02T00:54:43.458Z,12.65
2023-01-02T00:56:47.417Z,15.85
2023-01-02T00:58:59.946Z,13.52
2023-01-02T01:01:04.337Z,17.50
2023-01-02T01:03:08.219Z,15.30
2023-01-02T01:05:11.943Z,16.70
2023-01-02T01:07:15.576Z,19.50
2023-01-02T01:09:21.057Z,14.05
2023-01-02T01:11:25.088Z,17.88
2023-01-02T01:13:29.035Z,15.00
2023-01-02T01:15:32.798Z,14.68
2023-01-02T01:17:36.451Z,16.33
2023-01-02T01:19:40.881Z,17.83
2023-01-02T01:21:44.434Z,14.40
2023-01-02T01:23:52.299Z,19.33
2023-01-02T01:25:57.762Z,17.52
2023-01-02T01:28:01.710Z,19.30
2023-01-02T01:30:06.414Z,20.38
2023-01-02T01:32:10.446Z,17.90
2023-01-02T01:34:14.580Z,19.27
2023-01-02T01:36:19.594Z,21.25
2023-01-02T01:38:23.308Z,21.35
2023-01-02T01:40:27.112Z,22.40
2023-01-02T01:42:35.681Z,27.60
2023-01-02T01:44:44.549Z,28.10
2023-01-02T01:46:49.192Z,31.98
2023-01-02T01:49:04.406Z,36.60
2023-01-02T01:51:08.639Z,38.03
2023-01-02T01:53:18.446Z,39.70
2023-01-02T01:55:25.478Z,42.53
2023-01-02T01:57:33.640Z,41.72
2023-01-02T01:59:40.282Z,43.72
2023-01-02T02:01:45.557Z,41.55
2023-01-02T02:03:51.809Z,48.75
2023-01-02T02:05:57.649Z,49.63
2023-01-02T02:08:06.036Z,50.65
2023-01-02T02:10:13.481Z,43.95
2023-01-02T02:12:24.338Z,49.15
2023-01-02T02:14:32.876Z,48.75
2023-01-02T02:16:47.792Z,50.90
2023-01-02T02:19:34.191Z,53.42
2023-01-02T02:21:58.710Z,54.00
2023-01-02T02:24:37.441Z,54.97
2023-01-02T02:27:06.141Z,67.18
2023-01-02T02:29:58.920Z,59.65
2023-01-02T02:32:12.242Z,67.18
2023-01-02T02:34:24.276Z,61.38
2023-01-02T02:36:36.247Z,68.05
2023-01-02T02:38:55.241Z,63.83
2023-01-02T02:41:07.895Z,67.45
2023-01-02T02:43:19.107Z,69.30
2023-01-02T02:45:31.759Z,62.65
2023-01-02T02:47:44.852Z,68.55
2023-01-02T02:49:58.423Z,67.68
2023-01-02T02:52:08.667Z,63.38
2023-01-02T02:54:18.384Z,72.85
2023-01-02T02:56:27.906Z,59.83
2023-01-02T02:58:33.038Z,70.13
2023-01-02T03:00:38.412Z,60.95
2023-01-02T03:02:42.100Z,62.22
2023-01-02T03:04:47.110Z,59.13
2023-01-02T03:07:12.834Z,63.75
2023-01-02T03:09:24.436Z,66.65
2023-01-02T03:11:40.541Z,63.95
2023-01-02T03:13:57.894Z,63.50
2023-01-02T03:16:12.718Z,56.50
2023-01-02T03:18:25.031Z,59.95
2023-01-02T03:20:33.399Z,55.97
2023-01-02T03:22:41.779Z,61.75
2023-01-02T03:24:47.500Z,59.67
2023-01-02T03:26:56.769Z,63.30
2023-01-02T03:29:06.125Z,62.08
2023-01-02T03:31:17.743Z,64.07
2023-01-02T03:33:26.650Z,56.50
2023-01-02T03:35:36.475Z,63.88
2023-01-02T03:37:45.424Z,62.10
2023-01-02T03:39:53.197Z,57.05
2023-01-02T03:42:00.202Z,55.63
2023-01-02T03:44:07.537Z,54.58
2023-01-02T03:46:19.169Z,54.33
2023-01-02T03:48:32.803Z,53.55
2023-01-02T03:52:53.064Z,47.25
2023-01-02T03:54:59.514Z,41.70
2023-01-02T03:57:10.417Z,50.85
2023-01-02T03:59:22.554Z,48.30
2023-01-02T04:01:34.061Z,49.67
2023-01-02T04:03:42.854Z,55.58
2023-01-02T04:05:51.556Z,52.80
2023-01-02T04:08:00.792Z,54.47
2023-01-02T04:10:06.681Z,48.85
2023-01-02T04:12:15.442Z,47.85
2023-01-02T04:14:26.241Z,53.50
2023-01-02T04:16:35.191Z,55.22
2023-01-02T04:18:46.584Z,53.03
2023-01-02T04:20:53.560Z,51.63
2023-01-02T04:23:00.914Z,54.78
2023-01-02T04:25:11.747Z,55.90
2023-01-02T04:27:20.579Z,53.05
2023-01-02T04:29:24.487Z,49.35
2023-01-02T04:31:36.770Z,54.45
2023-01-02T04:33:44.966Z,56.00
2023-01-02T04:35:48.530Z,50.25
2023-01-02T04:37:52.817Z,47.63
2023-01-02T04:40:01.066Z,47.05
2023-01-02T04:42:04.698Z,46.10
2023-01-02T04:44:08.271Z,46.25
2023-01-02T04:46:12.112Z,47.00
2023-01-02T04:48:17.852Z,45.80
2023-01-02T04:50:21.513Z,47.55
2023-01-02T04:52:24.988Z,44.47
2023-01-02T04:54:28.655Z,41.05
2023-01-02T04:56:32.311Z,43.75
2023-01-02T04:58:36.360Z,44.10
2023-01-02T05:00:39.975Z,40.85
2023-01-02T05:02:43.801Z,48.15
2023-01-02T05:04:48.889Z,45.42
2023-01-02T05:06:52.571Z,35.22
2023-01-02T05:08:56.143Z,38.38
2023-01-02T05:10:59.842Z,42.05
2023-01-02T05:13:03.317Z,39.42
2023-01-02T05:15:09.583Z,35.78
2023-01-02T05:17:13.063Z,36.97
2023-01-02T05:19:16.864Z,37.28
2023-01-02T05:21:51.176Z,40.90
2023-01-02T05:23:54.988Z,37.15
2023-01-02T05:25:58.717Z,37.10
2023-01-02T05:28:03.119Z,43.15
2023-01-02T05:30:07.881Z,35.45
2023-01-02T05:32:11.571Z,35.25
2023-01-02T05:34:16.915Z,39.90
2023-01-02T05:36:22.878Z,39.00
2023-01-02T05:38:26.435Z,37.03
2023-01-02T05:40:29.937Z,38.70
2023-01-02T05:42:33.503Z,35.45
2023-01-02T05:44:36.807Z,37.67
2023-01-02T05:46:41.629Z,35.47
2023-01-02T05:48:45.453Z,41.92
2023-01-02T05:50:48.707Z,37.65
2023-01-02T05:52:53.419Z,34.38
2023-01-02T05:54:57.085Z,37.78
2023-01-02T05:57:00.512Z,36.72
2023-01-02T05:59:07.642Z,36.50
2023-01-02T06:01:13.571Z,39.63
2023-01-02T06:03:17.014Z,31.80
2023-01-02T06:05:20.610Z,35.88
2023-01-02T06:07:24.350Z,32.80
2023-01-02T06:09:29.521Z,34.30
2023-01-02T06:11:33.710Z,39.30
2023-01-02T06:13:39.578Z,41.30
2023-01-02T06:15:43.424Z,38.42
2023-01-02T06:17:47.159Z,37.20
2023-01-02T06:19:54.165Z,34.33
2023-01-02T06:21:57.848Z,34.30
2023-01-02T06:24:01.360Z,34.50
2023-01-02T06:26:09.025Z,33.92
2023-01-02T06:28:12.637Z,35.00
2023-01-02T06:30:16.567Z,37.90
2023-01-02T06:32:20.223Z,34.28
2023-01-02T06:34:23.866Z,34.95
2023-01-02T06:36:30.267Z,33.35
2023-01-02T06:38:34.054Z,33.00
2023-01-02T06:40:37.927Z,29.58
2023-01-02T06:42:44.885Z,35.33
2023-01-02T06:44:48.477Z,34.17
2023-01-02T06:46:52.108Z,31.35
2023-01-02T06:48:55.720Z,27.63
2023-01-02T06:50:59.821Z,24.65
2023-01-02T06:53:03.335Z,24.83
2023-01-02T06:55:07.823Z,23.65
2023-01-02T06:57:11.322Z,21.30
2023-01-02T06:59:16.343Z,26.42
2023-01-02T07:01:22.003Z,27.75
2023-01-02T07:03:25.833Z,25.75
2023-01-02T07:05:29.184Z,22.05
2023-01-02T07:07:33.214Z,25.75
2023-01-02T07:09:36.456Z,30.30
2023-01-02T07:11:40.566Z,26.27
2023-01-02T07:13:46.424Z,23.20
2023-01-02T07:15:51.170Z,26.85
2023-01-02T07:17:54.981Z,31.38
2023-01-02T07:20:01.992Z,33.90
2023-01-02T07:22:05.986Z,27.85
2023-01-02T07:24:13.911Z,32.95
2023-01-02T07:26:18.346Z,29.67
2023-01-02T07:28:22.541Z,28.70
2023-01-02T07:30:26.142Z,32.20
2023-01-02T07:32:31.149Z,31.25
2023-01-02T07:34:34.417Z,25.88
2023-01-02T07:36:37.727Z,27.60
2023-01-02T07:38:41.326Z,26.35
2023-01-02T07:40:45.086Z,30.95
2023-01-02T07:42:48.808Z,29.40
2023-01-02T07:44:52.425Z,28.42
2023-01-02T07:46:55.728Z,36.28
2023-01-02T07:49:00.363Z,26.73
2023-01-02T07:51:05.163Z,30.88
2023-01-02T07:53:08.680Z,26.40
2023-01-02T07:55:12.322Z,28.05
2023-01-02T07:57:15.790Z,24.90
2023-01-02T07:59:19.431Z,27.77
2023-01-02T08:01:23.534Z,24.23
2023-01-02T08:03:27.244Z,30.27
2023-01-02T08:05:35.034Z,32.47
2023-01-02T08:07:44.661Z,32.55
2023-01-02T08:09:48.890Z,26.33
2023-01-02T08:11:52.379Z,25.58
2023-01-02T08:13:56.256Z,24.40
2023-01-02T08:16:00.022Z,28.85
2023-01-02T08:18:03.687Z,25.23
2023-01-02T08:20:09.162Z,23.90
2023-01-02T08:22:14.222Z,29.05
2023-01-02T08:24:17.962Z,20.67
2023-01-02T08:26:23.636Z,21.20
2023-01-02T08:28:27.833Z,23.58
2023-01-02T08:30:31.698Z,26.65
2023-01-02T08:32:38.487Z,26.48
2023-01-02T08:34:42.051Z,26.02
2023-01-02T08:36:46.404Z,27.88
2023-01-02T08:38:51.714Z,26.58
2023-01-02T08:40:55.369Z,28.73
2023-01-02T08:42:58.999Z,22.90
2023-01-02T08:45:02.701Z,23.98
2023-01-02T08:47:06.600Z,20.83
2023-01-02T08:49:10.064Z,22.23
2023-01-02T08:51:13.682Z,21.88
2023-01-02T08:53:17.414Z,19.55
2023-01-02T08:55:22.529Z,21.20
2023-01-02T08:57:26.275Z,19.05
2023-01-02T08:59:29.977Z,17.27
2023-01-02T09:01:34.676Z,16.55
2023-01-02T09:03:38.471Z,9.70
2023-01-02T09:05:42.256Z,12.65
2023-01-02T09:07:45.951Z,12.75
2023-01-02T09:09:50.283Z,12.43
2023-01-02T09:11:55.160Z,13.32
2023-01-02T09:14:00.381Z,10.77
2023-01-02T09:16:03.962Z,11.68
2023-01-02T09:18:07.769Z,11.27
2023-01-02T09:20:11.664Z,10.82
2023-01-02T09:22:15.286Z,10.90
2023-01-02T09:24:19.567Z,11.35
2023-01-02T09:26:23.508Z,10.18
2023-01-02T09:28:29.124Z,9.20
2023-01-02T09:30:32.797Z,9.27
2023-01-02T09:32:37.489Z,9.88
2023-01-02T09:34:40.870Z,10.82
2023-01-02T09:36:44.329Z,5.63
2023-01-02T09:38:52.540Z,8.57
2023-01-02T09:40:56.789Z,6.63
2023-01-02T09:43:01.675Z,9.20
2023-01-02T09:45:09.283Z,6.32
2023-01-02T09:47:17.121Z,6.22
2023-01-02T09:49:23.346Z,8.20
2023-01-02T09:51:27.679Z,4.80
2023-01-02T09:53:32.480Z,7.15
2023-01-02T09:55:45.318Z,7.18
2023-01-02T09:57:56.451Z,8.65
2023-01-02T10:00:07.378Z,7.97
2023-01-02T10:02:27.860Z,6.30
2023-01-02T10:04:49.821Z,17.48
2023-01-02T10:07:00.189Z,7.90
2023-01-02T10:09:10.220Z,6.25
2023-01-02T10:11:33.544Z,4.68
2023-01-02T10:16:13.680Z,7.38
2023-01-02T10:18:24.747Z,6.07
2023-01-02T10:20:36.429Z,6.72
2023-01-02T10:22:44.477Z,7.25
2023-01-02T10:24:54.391Z,9.05
2023-01-02T10:26:59.834Z,7.25
2023-01-02T10:29:11.815Z,5.07
2023-01-02T10:31:25.116Z,4.10
2023-01-02T10:35:40.520Z,4.80
2023-01-02T10:37:44.244Z,4.40
2023-01-02T10:39:51.442Z,5.53
2023-01-02T10:41:57.802Z,4.22
2023-01-02T10:44:03.966Z,3.33
2023-01-02T10:46:08.186Z,3.60
2023-01-02T10:48:13.874Z,4.47
2023-01-02T10:50:21.840Z,3.33
2023-01-02T10:52:30.978Z,3.30
2023-01-02T10:54:58.563Z,5.63
2023-01-02T10:57:03.457Z,7.72
2023-01-02T10:59:21.697Z,5.18
2023-01-02T11:01:25.961Z,6.70
2023-01-02T11:03:32.486Z,7.45
2023-01-02T11:05:45.081Z,11.88
2023-01-02T11:07:51.229Z,12.05
2023-01-02T11:09:57.330Z,11.90
2023-01-02T11:12:10.613Z,10.90
2023-01-02T11:14:16.529Z,8.95
2023-01-02T11:16:21.664Z,8.95
2023-01-02T11:18:27.960Z,10.55
2023-01-02T11:20:36.567Z,11.73
2023-01-02T11:22:40.982Z,7.53
2023-01-02T11:25:00.613Z,10.55
2023-01-02T11:27:08.207Z,12.23
2023-01-02T11:29:17.480Z,13.27
2023-01-02T11:31:22.595Z,13.40
2023-01-02T11:33:31.473Z,15.65
2023-01-02T11:35:40.363Z,15.50
2023-01-02T11:37:53.172Z,17.00
2023-01-02T11:40:02.072Z,12.63
2023-01-02T11:42:35.589Z,13.90
2023-01-02T11:44:51.595Z,13.98
2023-01-02T11:46:56.925Z,18.23
2023-01-02T11:49:05.299Z,15.05
2023-01-02T11:51:17.710Z,12.18
2023-01-02T11:53:25.863Z,11.93
2023-01-02T11:55:41.536Z,11.85
2023-01-02T11:57:50.973Z,16.00
2023-01-02T11:59:57.005Z,14.60
2023-01-02T12:02:07.092Z,12.77
2023-01-02T12:04:11.217Z,12.40
2023-01-02T12:06:21.255Z,13.93
2023-01-02T12:08:40.506Z,15.10
2023-01-02T12:10:59.841Z,14.05
2023-01-02T12:13:27.376Z,12.35
2023-01-02T12:15:48.742Z,13.50
2023-01-02T12:18:00.659Z,16.10
2023-01-02T12:20:24.535Z,15.65
2023-01-02T12:22:55.149Z,14.23
2023-01-02T12:25:23.238Z,13.07
2023-01-02T12:27:35.640Z,11.52
2023-01-02T12:29:51.959Z,13.07
2023-01-02T12:32:28.188Z,12.57
2023-01-02T12:34:50.438Z,11.27
2023-01-02T12:37:08.020Z,13.00
2023-01-02T12:39:52.089Z,16.92
2023-01-02T12:42:10.155Z,15.68
2023-01-02T12:44:28.510Z,12.02
2023-01-02T12:47:04.785Z,10.82
2023-01-02T12:49:25.972Z,11.65
2023-01-02T12:51:37.619Z,13.50
2023-01-02T12:54:19.650Z,8.00
2023-01-02T12:56:39.361Z,11.35
2023-01-02T12:58:58.482Z,5.18
2023-01-02T13:01:11.735Z,4.88
2023-01-02T13:03:46.204Z,11.57
2023-01-02T13:05:54.455Z,3.17
2023-01-02T13:08:03.244Z,5.95
2023-01-02T13:10:08.982Z,2.97
2023-01-02T13:12:16.363Z,4.90
2023-01-02T13:14:25.191Z,2.50
2023-01-02T13:16:29.374Z,1.48
2023-01-02T13:19:00.024Z,6.38
2023-01-02T13:21:13.642Z,3.45
2023-01-02T13:23:30.873Z,1.83
2023-01-02T13:25:38.911Z,2.70
2023-01-02T13:27:46.466Z,4.82
2023-01-02T13:29:51.469Z,2.00
2023-01-02T13:31:57.234Z,2.25
2023-01-02T13:34:08.977Z,1.35
2023-01-02T13:36:20.908Z,4.00
2023-01-02T13:38:28.741Z,1.63
2023-01-02T13:40:34.375Z,2.97
2023-01-02T13:42:56.647Z,4.78
2023-01-02T13:45:02.090Z,4.88
2023-01-02T13:47:17.796Z,5.25
2023-01-02T13:49:25.885Z,9.02
2023-01-02T13:51:33.554Z,5.32
2023-01-02T13:53:43.006Z,6.13
2023-01-02T13:56:09.377Z,5.43
2023-01-02T13:58:40.888Z,6.13
2023-01-02T14:00:53.926Z,10.93
2023-01-02T14:03:34.195Z,3.97
2023-01-02T14:06:00.482Z,2.85
2023-01-02T14:08:25.795Z,4.28
2023-01-02T14:10:45.385Z,3.78
2023-01-02T14:12:53.786Z,4.47
2023-01-02T14:14:57.975Z,4.88
2023-01-02T14:17:17.221Z,3.92
2023-01-02T14:19:24.025Z,9.88
2023-01-02T14:21:35.372Z,5.78
2023-01-02T14:24:16.427Z,4.63
2023-01-02T14:26:23.445Z,6.78
2023-01-02T14:28:29.845Z,3.28
2023-01-02T14:30:36.713Z,6.88
2023-01-02T14:32:44.523Z,3.50
2023-01-02T14:34:51.451Z,4.65
2023-01-02T14:36:58.197Z,5.25
2023-01-02T14:39:01.830Z,3.30
2023-01-02T14:41:19.222Z,4.75
2023-01-02T14:43:32.273Z,3.90
2023-01-02T14:45:41.896Z,5.43
2023-01-02T14:47:52.163Z,9.90
2023-01-02T14:49:59.783Z,3.65
2023-01-02T14:52:07.983Z,7.22
2023-01-02T14:54:16.733Z,5.13
2023-01-02T14:56:23.169Z,3.70
2023-01-02T14:58:38.533Z,4.05
2023-01-02T15:00:46.622Z,4.80
2023-01-02T15:02:56.020Z,8.05
2023-01-02T15:05:07.322Z,4.25
2023-01-02T15:07:14.832Z,3.10
2023-01-02T15:09:28.599Z,7.57
2023-01-02T15:11:49.236Z,6.72
2023-01-02T15:14:04.159Z,8.98
2023-01-02T15:16:11.512Z,2.95
2023-01-02T15:18:21.742Z,9.32
2023-01-02T15:20:28.752Z,4.38
2023-01-02T15:22:32.510Z,98.28
2023-01-02T15:24:35.891Z,25.83
2023-01-02T15:26:40.218Z,7.63
2023-01-02T15:28:43.509Z,5.55
2023-01-02T15:30:47.232Z,7.55
2023-01-02T15:32:51.003Z,2.63
2023-01-02T15:35:11.282Z,8.75
2023-01-02T15:37:15.127Z,10.52
2023-01-02T15:39:21.516Z,14.32
2023-01-02T15:41:29.752Z,26.23
2023-01-02T15:43:53.806Z,37.38
2023-01-02T15:45:58.385Z,16.73
2023-01-02T15:48:03.462Z,64.88
2023-01-02T15:50:16.137Z,73.82
2023-01-02T15:52:23.866Z,26.67
2023-01-02T15:54:28.878Z,439.00
2023-01-02T15:56:34.103Z,15.75
2023-01-02T15:58:38.229Z,20.52
2023-01-02T16:00:42.766Z,56.38
2023-01-02T16:02:47.238Z,12.30
2023-01-02T16:05:09.938Z,18.15
2023-01-02T16:07:28.019Z,60.22
2023-01-02T16:09:33.385Z,5.55
2023-01-02T16:11:47.085Z,5.43
2023-01-02T16:14:13.452Z,21.45
2023-01-02T16:16:18.243Z,20.70
2023-01-02T16:18:22.175Z,13.95
2023-01-02T16:20:29.923Z,27.98
2023-01-02T16:22:42.770Z,11.13
2023-01-02T16:24:51.085Z,4.30
2023-01-02T16:26:54.929Z,10.50
2023-01-02T16:28:59.142Z,9.30
2023-01-02T16:31:11.155Z,8.73
2023-01-02T16:33:23.704Z,8.35
2023-01-02T16:35:31.466Z,5.35
2023-01-02T16:37:38.171Z,11.80
2023-01-02T16:39:45.377Z,19.63
2023-01-02T16:42:13.501Z,12.93
2023-01-02T16:44:20.620Z,30.70
2023-01-02T16:46:24.454Z,9.27
2023-01-02T16:48:30.343Z,12.40
2023-01-02T16:50:41.575Z,9.80
2023-01-02T16:52:46.138Z,28.95
2023-01-02T16:54:54.109Z,34.53
2023-01-02T16:56:58.135Z,113.25
2023-01-02T16:59:02.206Z,137.32
2023-01-02T17:01:07.592Z,62.17
2023-01-02T17:03:17.645Z,101.13
2023-01-02T17:05:27.241Z,52.00
2023-01-02T17:07:32.370Z,51.97
2023-01-02T17:09:36.187Z,53.28
2023-01-02T17:12:00.503Z,64.90
2023-01-02T17:14:04.551Z,76.00
2023-01-02T17:16:09.265Z,118.63
2023-01-02T17:18:14.115Z,217.55
2023-01-02T17:20:18.327Z,245.32
2023-01-02T17:22:22.211Z,107.47
2023-01-02T17:24:27.573Z,88.45
2023-01-02T17:26:31.167Z,199.35
2023-01-02T17:28:34.976Z,140.98
2023-01-02T17:30:39.114Z,93.85
2023-01-02T17:32:44.139Z,74.00
2023-01-02T17:34:48.592Z,53.70
2023-01-02T17:36:53.246Z,76.47
2023-01-02T17:38:57.013Z,69.20
2023-01-02T17:41:02.325Z,67.88
2023-01-02T17:43:06.521Z,68.25
2023-01-02T17:45:11.347Z,55.58
2023-01-02T17:47:57.216Z,41.75
2023-01-02T17:49:40.702Z,42.20
2023-01-02T17:51:44.472Z,46.95
2023-01-02T17:53:48.630Z,48.55
2023-01-02T17:56:21.468Z,51.65
2023-01-02T17:58:18.919Z,62.10
2023-01-02T18:00:23.846Z,123.63
2023-01-02T18:02:28.085Z,75.82
2023-01-02T18:04:31.913Z,76.97
2023-01-02T18:06:35.567Z,52.30
2023-01-02T18:08:39.224Z,57.03
2023-01-02T18:10:43.564Z,82.07
2023-01-02T18:12:47.262Z,97.70
2023-01-02T18:14:52.729Z,119.35
2023-01-02T18:16:57.655Z,50.85
2023-01-02T18:19:04.565Z,49.58
2023-01-02T18:21:12.675Z,51.13
2023-01-02T18:23:16.871Z,52.75
2023-01-02T18:25:24.576Z,45.13
2023-01-02T18:27:32.881Z,63.28
2023-01-02T18:29:36.868Z,93.90
2023-01-02T18:31:45.637Z,97.47
2023-01-02T18:33:50.696Z,105.18
2023-01-02T18:36:00.489Z,106.50
2023-01-02T18:38:15.687Z,106.93
2023-01-02T18:40:27.802Z,112.55
2023-01-02T18:42:35.014Z,107.40
2023-01-02T18:44:41.249Z,82.45
2023-01-02T18:47:03.299Z,87.13
2023-01-02T18:49:16.626Z,94.63
2023-01-02T18:51:25.930Z,90.38
2023-01-02T18:53:36.336Z,95.28
2023-01-02T18:55:41.132Z,63.10
2023-01-02T18:57:48.184Z,99.13
2023-01-02T18:59:53.959Z,109.53
2023-01-02T19:02:03.557Z,98.25
2023-01-02T19:04:30.813Z,86.10
2023-01-02T19:06:46.021Z,89.30
2023-01-02T19:08:51.925Z,101.63
2023-01-02T19:11:21.595Z,88.93
2023-01-02T19:13:27.919Z,132.82
2023-01-02T19:15:42.412Z,97.15
2023-01-02T19:17:49.370Z,75.05
2023-01-02T19:19:57.344Z,56.47
2023-01-02T19:22:03.027Z,48.53
2023-01-02T19:24:18.254Z,64.90
2023-01-02T19:26:28.062Z,60.00
2023-01-02T19:28:34.856Z,51.58
2023-01-02T19:30:41.000Z,41.67
2023-01-02T19:32:46.227Z,31.58
2023-01-02T19:34:53.906Z,25.45
2023-01-02T19:37:10.746Z,24.27
2023-01-02T19:39:27.387Z,24.15
2023-01-02T19:41:48.737Z,26.55
2023-01-02T19:43:55.230Z,30.95
2023-01-02T19:46:02.044Z,22.63
2023-01-02T19:48:12.527Z,30.65
2023-01-02T19:50:24.507Z,27.38
2023-01-02T19:52:34.839Z,27.67
2023-01-02T19:54:40.251Z,23.67
2023-01-02T19:56:45.475Z,24.25
2023-01-02T19:58:50.372Z,23.40
2023-01-02T20:00:54.666Z,25.92
2023-01-02T20:02:59.485Z,33.42
2023-01-02T20:05:04.107Z,55.75
2023-01-02T20:07:10.872Z,50.10
2023-01-02T20:09:16.651Z,53.50
2023-01-02T20:11:38.289Z,46.42
2023-01-02T20:13:45.636Z,47.20
2023-01-02T20:15:51.056Z,70.07
2023-01-02T20:17:56.775Z,49.35
2023-01-02T20:20:02.060Z,174.05
2023-01-02T20:22:07.633Z,80.28
2023-01-02T20:24:14.000Z,66.28
2023-01-02T20:26:18.308Z,87.18
2023-01-02T20:28:24.887Z,85.43
2023-01-02T20:30:30.398Z,94.68
2023-01-02T20:32:34.958Z,104.32
2023-01-02T20:34:42.181Z,128.05
2023-01-02T20:36:47.415Z,93.80
2023-01-02T20:38:52.969Z,81.35
2023-01-02T20:40:58.619Z,92.00
2023-01-02T20:43:06.021Z,83.80
2023-01-02T20:45:11.764Z,205.48
2023-01-02T20:47:18.348Z,157.63
2023-01-02T20:49:25.502Z,166.68
2023-01-02T20:51:34.452Z,96.47
2023-01-02T20:53:40.673Z,59.25
2023-01-02T20:55:46.146Z,63.45
2023-01-02T20:57:53.485Z,62.63
2023-01-02T20:59:59.254Z,47.25
2023-01-02T21:02:04.304Z,46.08
2023-01-02T21:04:10.206Z,51.22
2023-01-02T21:06:15.294Z,76.30
2023-01-02T21:08:20.536Z,56.13
2023-01-02T21:10:25.075Z,38.30
2023-01-02T21:12:47.266Z,65.60
2023-01-02T21:14:53.294Z,76.13
2023-01-02T21:16:58.876Z,53.53
2023-01-02T21:19:05.969Z,67.25
2023-01-02T21:21:12.368Z,50.78
2023-01-02T21:23:17.880Z,12.10
2023-01-02T21:25:22.571Z,12.95
2023-01-02T21:27:27.551Z,15.10
2023-01-02T21:29:31.907Z,12.90
2023-01-02T21:31:38.777Z,15.98
2023-01-02T21:33:43.509Z,15.25
2023-01-02T21:35:50.405Z,7.80
2023-01-02T21:37:54.884Z,5.10
2023-01-02T21:39:59.634Z,7.50
2023-01-02T21:42:19.821Z,4.40
2023-01-02T21:44:24.341Z,7.85
2023-01-02T21:46:28.829Z,8.65
2023-01-02T21:48:35.373Z,5.40
2023-01-02T21:50:40.149Z,5.75
2023-01-02T21:52:44.508Z,4.90
2023-01-02T21:54:49.603Z,10.05
2023-01-02T21:56:54.817Z,4.40
2023-01-02T21:58:59.878Z,4.00
2023-01-02T22:01:04.087Z,5.95
2023-01-02T22:03:09.593Z,4.88
2023-01-02T22:05:19.343Z,4.50
2023-01-02T22:07:36.962Z,1.95
2023-01-02T22:09:44.804Z,1.10
2023-01-02T22:11:58.221Z,0.90
2023-01-02T22:16:07.363Z,2.95
2023-01-02T22:18:11.843Z,5.25
2023-01-02T22:20:18.807Z,2.95
2023-01-02T22:22:23.048Z,3.25
2023-01-02T22:24:28.632Z,3.65
2023-01-02T22:26:36.577Z,6.25
2023-01-02T22:28:43.298Z,6.55
2023-01-02T22:30:48.218Z,5.82
2023-01-02T22:32:53.320Z,4.00
2023-01-02T22:34:57.886Z,4.65
2023-01-02T22:37:04.606Z,9.77
2023-01-02T22:39:27.679Z,8.40
2023-01-02T22:41:32.613Z,13.55
2023-01-02T22:43:39.485Z,11.40
2023-01-02T22:45:46.643Z,11.05
2023-01-02T22:47:51.393Z,11.75
2023-01-02T22:49:57.014Z,6.90
2023-01-02T22:52:08.058Z,8.70
2023-01-02T22:54:16.780Z,3.70
2023-01-02T22:56:24.251Z,6.47
2023-01-02T22:58:28.651Z,6.60
2023-01-02T23:00:32.521Z,6.95
2023-01-02T23:02:36.445Z,4.72
2023-01-02T23:04:40.396Z,4.15
2023-01-02T23:07:13.627Z,3.33
2023-01-02T23:09:08.683Z,8.40
2023-01-02T23:11:15.131Z,8.55
2023-01-02T23:13:19.006Z,6.55
2023-01-02T23:15:22.961Z,19.60
2023-01-02T23:17:44.499Z,36.25
2023-01-02T23:19:47.343Z,23.90
2023-01-02T23:21:53.135Z,14.68
2023-01-02T23:23:57.215Z,20.30
2023-01-02T23:26:01.029Z,8.20
2023-01-02T23:28:07.429Z,18.75
2023-01-02T23:30:12.669Z,12.10
2023-01-02T23:32:16.996Z,11.77
2023-01-02T23:34:23.680Z,13.48
2023-01-02T23:36:27.740Z,9.32
2023-01-02T23:38:34.337Z,11.77
2023-01-02T23:40:38.266Z,11.57
2023-01-02T23:42:42.091Z,16.15
2023-01-02T23:44:49.600Z,8.93
2023-01-02T23:46:54.606Z,7.32
2023-01-02T23:49:00.176Z,12.95
2023-01-02T23:51:06.949Z,12.85
2023-01-02T23:53:10.964Z,5.80
2023-01-02T23:55:14.841Z,12.75
2023-01-02T23:57:19.069Z,8.82
2023-01-02T23:59:25.228Z,10.30
